Time;durP1;ratioP1;P1;durP2;ratioP2;P2;SDS_P1;SDS_P2;PMS_P1;PMS_P2;Temp;Humidity;BMP_temperature;BMP_pressure;BME280_temperature;BME280_humidity;BME280_pressure;Samples;Min_cycle;Max_cycle;Signal;HPM_P1;HPM_P2
2022/04/09 00:02:23;;;;;;;7.57;1.30;;;5.00;99.90;;;;;;5048570;28;20060;-68
2022/04/09 00:04:49;;;;;;;7.22;1.70;;;5.00;99.90;;;;;;5049446;28;20144;-68
2022/04/09 00:07:15;;;;;;;7.25;1.80;;;5.00;99.90;;;;;;5045465;28;20185;-69
2022/04/09 00:09:41;;;;;;;10.85;2.30;;;5.00;99.90;;;;;;5051823;28;20044;-68
2022/04/09 00:12:07;;;;;;;7.25;2.28;;;5.00;99.90;;;;;;5047378;28;20095;-68
2022/04/09 00:14:34;;;;;;;9.48;1.50;;;5.00;99.90;;;;;;5015424;28;20041;-69
2022/04/09 00:17:00;;;;;;;9.13;1.73;;;4.90;99.90;;;;;;5042472;28;20463;-68
2022/04/09 00:19:25;;;;;;;5.25;1.35;;;4.90;99.90;;;;;;5051037;28;20459;-69
2022/04/09 00:21:51;;;;;;;8.98;1.67;;;4.90;99.90;;;;;;5026530;28;20058;-68
2022/04/09 00:24:16;;;;;;;7.07;1.80;;;4.90;99.90;;;;;;5038145;28;20479;-68
2022/04/09 00:26:42;;;;;;;10.88;1.77;;;4.90;99.90;;;;;;5049667;28;20040;-69
2022/04/09 00:29:08;;;;;;;6.78;1.88;;;4.90;99.90;;;;;;5047860;28;20434;-68
2022/04/09 00:31:34;;;;;;;7.43;1.67;;;4.90;99.90;;;;;;5046718;28;20041;-69
2022/04/09 00:34:00;;;;;;;9.02;1.63;;;4.90;99.90;;;;;;5029988;28;20144;-68
2022/04/09 00:36:25;;;;;;;10.05;2.30;;;4.90;99.90;;;;;;5044192;28;20450;-69
2022/04/09 00:38:51;;;;;;;8.40;1.63;;;4.90;99.90;;;;;;5037910;28;20033;-68
2022/04/09 00:41:17;;;;;;;11.73;1.67;;;4.90;99.90;;;;;;5049222;28;20371;-68
2022/04/09 00:43:43;;;;;;;9.30;1.63;;;4.90;99.90;;;;;;5047291;28;20064;-69
2022/04/09 00:46:13;;;;;;;10.27;1.50;;;5.00;99.90;;;;;;5035487;28;20049;-69
2022/04/09 00:48:41;;;;;;;8.85;1.70;;;5.00;99.90;;;;;;5046380;28;20036;-69
2022/04/09 00:51:07;;;;;;;9.45;1.40;;;5.00;99.90;;;;;;5043530;28;20053;-69
2022/04/09 00:53:34;;;;;;;9.73;2.33;;;5.00;99.90;;;;;;5037287;28;20046;-68
2022/04/09 00:56:13;;;;;;;6.82;1.30;;;4.90;99.90;;;;;;5038649;28;20090;-69
2022/04/09 00:59:00;;;;;;;8.80;1.50;;;4.90;99.90;;;;;;5044919;28;20061;-69
2022/04/09 01:01:27;;;;;;;6.65;1.48;;;4.90;99.90;;;;;;5042917;28;20182;-69
2022/04/09 01:03:54;;;;;;;4.70;1.10;;;4.80;99.90;;;;;;5043843;28;20151;-69
2022/04/09 01:06:20;;;;;;;5.53;1.27;;;4.80;99.90;;;;;;5042241;28;20120;-69
2022/04/09 01:08:46;;;;;;;8.15;1.35;;;4.80;99.90;;;;;;5044372;28;20270;-68
2022/04/09 01:11:13;;;;;;;4.93;1.20;;;4.70;99.90;;;;;;5048479;28;20045;-68
2022/04/09 01:13:39;;;;;;;8.85;1.92;;;4.70;99.90;;;;;;5039869;28;20090;-68
2022/04/09 01:16:05;;;;;;;9.50;1.73;;;4.80;99.90;;;;;;5048461;28;20099;-69
2022/04/09 01:18:33;;;;;;;8.35;1.58;;;4.80;99.90;;;;;;5039748;28;20720;-69
2022/04/09 01:20:59;;;;;;;5.57;1.55;;;4.80;99.90;;;;;;5048557;28;20052;-69
2022/04/09 01:23:26;;;;;;;7.53;1.65;;;4.80;99.90;;;;;;5041859;28;20037;-69
2022/04/09 01:25:52;;;;;;;6.10;1.52;;;4.80;99.90;;;;;;5043074;28;20348;-69
2022/04/09 01:28:18;;;;;;;8.02;1.73;;;4.70;99.90;;;;;;5036367;28;20056;-69
2022/04/09 01:30:44;;;;;;;9.52;1.40;;;4.80;99.90;;;;;;5044447;28;20052;-69
2022/04/09 01:33:20;;;;;;;9.30;1.48;;;4.80;99.90;;;;;;5047005;28;20551;-68
2022/04/09 01:35:46;;;;;;;8.48;1.67;;;4.80;99.90;;;;;;5042132;28;20084;-69
2022/04/09 01:38:12;;;;;;;7.13;1.45;;;4.80;99.90;;;;;;5048474;28;20364;-68
2022/04/09 01:40:38;;;;;;;6.20;1.25;;;4.80;99.90;;;;;;5038245;28;20117;-68
2022/04/09 01:43:04;;;;;;;7.65;1.52;;;4.80;99.90;;;;;;5046676;28;20122;-69
2022/04/09 01:45:30;;;;;;;7.93;1.77;;;4.80;99.90;;;;;;5033154;28;20209;-69
2022/04/09 01:47:58;;;;;;;6.00;1.63;;;4.80;99.90;;;;;;5047398;28;20041;-69
2022/04/09 01:50:27;;;;;;;6.47;1.20;;;4.80;99.90;;;;;;5041301;28;20068;-69
2022/04/09 01:52:54;;;;;;;12.18;1.80;;;4.90;99.90;;;;;;5036019;28;20049;-69
2022/04/09 01:55:20;;;;;;;10.60;1.80;;;4.90;99.90;;;;;;5040118;28;20045;-69
2022/04/09 01:57:47;;;;;;;7.90;1.27;;;4.90;99.90;;;;;;5041997;28;20041;-68
2022/04/09 02:00:14;;;;;;;7.72;1.73;;;4.90;99.90;;;;;;5039681;28;20056;-68
2022/04/09 02:02:40;;;;;;;6.75;1.40;;;4.90;99.90;;;;;;5042246;28;20052;-68
2022/04/09 02:05:07;;;;;;;8.00;1.55;;;4.90;99.90;;;;;;5047513;28;20513;-69
2022/04/09 02:07:35;;;;;;;11.20;1.52;;;4.90;99.90;;;;;;5045202;28;20098;-69
2022/04/09 02:10:00;;;;;;;8.82;1.70;;;4.90;99.90;;;;;;5038671;28;20427;-69
2022/04/09 02:12:26;;;;;;;9.98;1.35;;;4.80;99.90;;;;;;5040564;28;20068;-69
2022/04/09 02:14:51;;;;;;;8.55;1.77;;;4.80;99.90;;;;;;5045321;28;20049;-69
2022/04/09 02:17:17;;;;;;;10.07;1.58;;;4.80;99.90;;;;;;5047820;28;20039;-69
2022/04/09 02:19:42;;;;;;;10.27;1.75;;;4.80;99.90;;;;;;5040722;28;20045;-69
2022/04/09 02:22:08;;;;;;;10.68;1.60;;;4.80;99.90;;;;;;5041682;28;20049;-69
2022/04/09 02:24:34;;;;;;;10.57;1.67;;;4.70;99.90;;;;;;5039652;28;20055;-68
2022/04/09 02:26:59;;;;;;;9.68;1.52;;;4.70;99.90;;;;;;5040504;28;20046;-68
2022/04/09 02:29:25;;;;;;;8.02;1.73;;;4.70;99.90;;;;;;5036926;28;20080;-69
2022/04/09 02:31:50;;;;;;;6.20;1.20;;;4.70;99.90;;;;;;5040529;28;20116;-68
2022/04/09 02:34:16;;;;;;;6.85;1.30;;;4.70;99.90;;;;;;5038269;28;20053;-69
2022/04/09 02:36:42;;;;;;;9.60;1.55;;;4.70;99.90;;;;;;5044025;28;20761;-68
2022/04/09 02:39:08;;;;;;;7.28;1.58;;;4.60;99.90;;;;;;5041296;28;20064;-69
2022/04/09 02:41:33;;;;;;;7.78;1.70;;;4.70;99.90;;;;;;5039174;28;20053;-68
2022/04/09 02:43:59;;;;;;;9.73;1.40;;;4.60;99.90;;;;;;5039851;28;20056;-68
2022/04/09 02:46:25;;;;;;;7.30;1.25;;;4.60;99.90;;;;;;5037962;28;20099;-68
2022/04/09 02:48:51;;;;;;;9.73;1.20;;;4.60;99.90;;;;;;5037117;28;20098;-68
2022/04/09 02:51:17;;;;;;;11.82;1.40;;;4.60;99.90;;;;;;5037130;28;20391;-68
2022/04/09 02:53:44;;;;;;;6.10;1.50;;;4.50;99.90;;;;;;5040936;28;20056;-68
2022/04/09 02:56:10;;;;;;;5.70;1.30;;;4.60;99.90;;;;;;5041017;28;20488;-68
2022/04/09 02:58:35;;;;;;;7.00;1.90;;;4.50;99.90;;;;;;5037277;28;20068;-68
2022/04/09 03:01:01;;;;;;;7.03;1.48;;;4.50;99.90;;;;;;5035240;28;20048;-68
2022/04/09 03:03:26;;;;;;;3.85;1.10;;;4.50;99.90;;;;;;5039929;28;20037;-68
2022/04/09 03:05:52;;;;;;;8.60;1.20;;;4.50;99.90;;;;;;5038449;28;20420;-68
2022/04/09 03:08:17;;;;;;;6.20;1.40;;;4.50;99.90;;;;;;5041886;28;20475;-68
2022/04/09 03:10:43;;;;;;;7.57;1.60;;;4.60;99.90;;;;;;5038647;28;20065;-69
2022/04/09 03:13:08;;;;;;;8.88;1.40;;;4.60;99.90;;;;;;5038322;28;20231;-69
2022/04/09 03:15:34;;;;;;;6.53;1.60;;;4.60;99.90;;;;;;5040497;28;20037;-69
2022/04/09 03:18:00;;;;;;;7.90;1.45;;;4.70;99.90;;;;;;5037760;28;20493;-69
2022/04/09 03:20:25;;;;;;;8.40;1.75;;;4.70;99.90;;;;;;5036527;28;20045;-69
2022/04/09 03:22:51;;;;;;;8.38;1.63;;;4.60;99.90;;;;;;5043077;28;20474;-68
2022/04/09 03:25:17;;;;;;;8.70;1.45;;;4.60;99.90;;;;;;5046049;28;20063;-68
2022/04/09 03:27:43;;;;;;;6.05;1.50;;;4.60;99.90;;;;;;5037901;28;20137;-68
2022/04/09 03:30:09;;;;;;;10.98;1.92;;;4.60;99.90;;;;;;5046430;28;20129;-68
2022/04/09 03:32:40;;;;;;;7.13;1.27;;;4.50;99.90;;;;;;5048234;28;20111;-68
2022/04/09 03:35:07;;;;;;;8.10;1.20;;;4.50;99.90;;;;;;5051708;28;20057;-68
2022/04/09 03:37:36;;;;;;;7.22;1.60;;;4.40;99.90;;;;;;5050470;28;20429;-68
2022/04/09 03:40:04;;;;;;;7.78;1.35;;;4.40;99.90;;;;;;5044516;28;20038;-68
2022/04/09 03:42:30;;;;;;;8.43;1.10;;;4.40;99.90;;;;;;5040116;28;20595;-68
2022/04/09 03:44:55;;;;;;;11.85;1.95;;;4.40;99.90;;;;;;5043361;28;20101;-68
2022/04/09 03:47:21;;;;;;;7.63;1.50;;;4.40;99.90;;;;;;5037129;28;20132;-68
2022/04/09 03:49:47;;;;;;;9.50;1.17;;;4.40;99.90;;;;;;5048028;28;20732;-68
2022/04/09 03:52:13;;;;;;;7.65;1.45;;;4.50;99.90;;;;;;5049606;28;20052;-69
2022/04/09 03:54:39;;;;;;;10.15;1.50;;;4.50;99.90;;;;;;5047796;28;20448;-68
2022/04/09 03:57:05;;;;;;;11.73;1.98;;;4.50;99.90;;;;;;5048673;28;20075;-69
2022/04/09 03:59:31;;;;;;;10.15;1.88;;;4.50;99.90;;;;;;5043324;28;20156;-68
2022/04/09 04:01:57;;;;;;;6.70;1.15;;;4.50;99.90;;;;;;5048091;28;20487;-68
2022/04/09 04:04:23;;;;;;;7.45;1.50;;;4.50;99.90;;;;;;5048786;28;20067;-68
2022/04/09 04:06:48;;;;;;;8.30;1.38;;;4.50;99.90;;;;;;5046911;28;20372;-68
2022/04/09 04:09:16;;;;;;;8.38;1.50;;;4.50;99.90;;;;;;5050457;28;20470;-68
2022/04/09 04:11:43;;;;;;;7.18;1.25;;;4.50;99.90;;;;;;5047042;28;20463;-69
2022/04/09 04:14:09;;;;;;;5.18;1.02;;;4.50;99.90;;;;;;5041340;28;20057;-68
2022/04/09 04:16:35;;;;;;;6.90;1.52;;;4.50;99.90;;;;;;5045949;28;20471;-68
2022/04/09 04:19:00;;;;;;;7.68;1.50;;;4.50;99.90;;;;;;5045936;28;20091;-68
2022/04/09 04:21:27;;;;;;;7.45;1.25;;;4.50;99.90;;;;;;5047281;28;20120;-68
2022/04/09 04:23:52;;;;;;;5.53;1.10;;;4.50;99.90;;;;;;5045189;28;20056;-68
2022/04/09 04:26:18;;;;;;;7.13;1.10;;;4.50;99.90;;;;;;5049607;28;20053;-68
2022/04/09 04:28:48;;;;;;;9.80;1.50;;;4.50;99.90;;;;;;5046361;28;20068;-68
2022/04/09 04:31:17;;;;;;;4.97;1.30;;;4.50;99.90;;;;;;5044132;28;20048;-68
2022/04/09 04:33:42;;;;;;;7.53;1.33;;;4.50;99.90;;;;;;5046600;28;20053;-68
2022/04/09 04:36:08;;;;;;;5.82;1.10;;;4.60;99.90;;;;;;5036723;28;20060;-68
2022/04/09 04:38:33;;;;;;;7.25;1.30;;;4.60;99.90;;;;;;5049982;28;20041;-68
2022/04/09 04:41:00;;;;;;;6.05;1.35;;;4.60;99.90;;;;;;5045271;28;20102;-68
2022/04/09 04:43:25;;;;;;;5.07;1.27;;;4.60;99.90;;;;;;5040574;28;20159;-68
2022/04/09 04:45:51;;;;;;;10.20;1.75;;;4.60;99.90;;;;;;5049043;28;20502;-68
2022/04/09 04:48:17;;;;;;;9.15;1.40;;;4.60;99.90;;;;;;5050577;28;20040;-68
2022/04/09 04:50:42;;;;;;;5.72;1.50;;;4.70;99.90;;;;;;5046914;28;20048;-68
2022/04/09 04:53:08;;;;;;;5.30;1.20;;;4.70;99.90;;;;;;5049369;28;20131;-68
2022/04/09 04:55:35;;;;;;;6.85;1.10;;;4.70;99.90;;;;;;5046657;28;20041;-68
2022/04/09 04:58:00;;;;;;;8.50;1.38;;;4.70;99.90;;;;;;5043919;28;20045;-69
2022/04/09 05:00:26;;;;;;;9.10;1.90;;;4.80;99.90;;;;;;5047923;28;20056;-70
2022/04/09 05:02:52;;;;;;;7.20;1.40;;;4.80;99.90;;;;;;5040472;28;20387;-69
2022/04/09 05:05:18;;;;;;;8.68;1.55;;;4.80;99.90;;;;;;5047565;28;21875;-68
2022/04/09 05:07:50;;;;;;;10.88;1.52;;;4.80;99.90;;;;;;5040048;28;20501;-69
2022/04/09 05:10:25;;;;;;;6.93;1.90;;;4.80;99.90;;;;;;5037238;28;20786;-69
2022/04/09 05:12:54;;;;;;;10.48;1.70;;;4.80;99.90;;;;;;5025497;28;20048;-69
2022/04/09 05:15:19;;;;;;;5.60;1.20;;;4.80;99.90;;;;;;5041765;28;20033;-69
2022/04/09 05:17:45;;;;;;;7.00;1.55;;;4.80;99.90;;;;;;5039888;28;20045;-69
2022/04/09 05:20:14;;;;;;;7.82;1.42;;;4.80;99.90;;;;;;5038759;28;20489;-68
2022/04/09 05:22:43;;;;;;;7.78;1.30;;;4.80;99.90;;;;;;5039956;28;20073;-69
2022/04/09 05:25:10;;;;;;;7.82;1.42;;;4.80;99.90;;;;;;5035531;28;20041;-69
2022/04/09 05:27:37;;;;;;;5.63;1.30;;;4.80;99.90;;;;;;5037276;28;20831;-68
2022/04/09 05:30:04;;;;;;;7.75;1.60;;;4.80;99.90;;;;;;5042688;28;20439;-68
2022/04/09 05:32:30;;;;;;;9.27;1.63;;;4.80;99.90;;;;;;5039716;28;20048;-68
2022/04/09 05:34:56;;;;;;;9.80;2.58;;;4.80;99.90;;;;;;5041207;28;20053;-68
2022/04/09 05:37:22;;;;;;;9.68;1.60;;;4.80;99.90;;;;;;5043754;28;20095;-68
2022/04/09 05:39:47;;;;;;;10.77;1.60;;;4.90;99.90;;;;;;5037635;28;20042;-69
2022/04/09 05:42:13;;;;;;;9.25;1.77;;;5.00;99.90;;;;;;5047328;28;20136;-68
2022/04/09 05:44:39;;;;;;;9.60;1.75;;;5.10;99.90;;;;;;5042010;28;20118;-68
2022/04/09 05:47:05;;;;;;;9.77;1.73;;;5.20;99.90;;;;;;5043817;28;20041;-68
2022/04/09 05:49:30;;;;;;;9.50;1.58;;;5.30;99.90;;;;;;5044704;28;20124;-69
2022/04/09 05:51:57;;;;;;;11.63;2.55;;;5.40;99.90;;;;;;5047430;28;20125;-69
2022/04/09 05:54:23;;;;;;;9.60;2.17;;;5.40;99.90;;;;;;5032235;28;20049;-69
2022/04/09 05:56:48;;;;;;;10.63;2.35;;;5.40;99.90;;;;;;5039159;28;20060;-69
2022/04/09 05:59:14;;;;;;;10.80;2.28;;;5.40;99.90;;;;;;5039390;28;20052;-69
2022/04/09 06:01:39;;;;;;;9.73;1.83;;;5.40;99.90;;;;;;5038560;28;20036;-69
2022/04/09 06:04:06;;;;;;;8.98;1.70;;;5.50;99.90;;;;;;5035624;28;20357;-69
2022/04/09 06:06:34;;;;;;;10.60;1.60;;;5.60;99.90;;;;;;5040258;28;20044;-69
2022/04/09 06:09:00;;;;;;;9.50;1.42;;;5.80;99.90;;;;;;5043164;28;20136;-69
2022/04/09 06:11:26;;;;;;;9.10;2.00;;;6.00;99.90;;;;;;5037534;28;20141;-69
2022/04/09 06:13:51;;;;;;;11.68;1.58;;;6.10;99.90;;;;;;5040406;28;20041;-69
2022/04/09 06:16:17;;;;;;;7.57;1.73;;;6.10;99.90;;;;;;5039818;28;20049;-69
2022/04/09 06:18:43;;;;;;;8.13;1.90;;;6.10;99.90;;;;;;5037007;28;20057;-69
2022/04/09 06:21:09;;;;;;;10.55;2.00;;;6.00;99.90;;;;;;5047017;28;20037;-69
2022/04/09 06:23:35;;;;;;;7.65;1.80;;;6.00;99.90;;;;;;5039390;28;20470;-69
2022/04/09 06:26:00;;;;;;;10.55;1.92;;;6.00;99.90;;;;;;5049500;28;20080;-69
2022/04/09 06:28:26;;;;;;;6.88;1.70;;;6.00;99.90;;;;;;5046476;28;20475;-69
2022/04/09 06:30:53;;;;;;;9.95;2.40;;;6.00;99.90;;;;;;5042015;28;20063;-68
2022/04/09 06:33:19;;;;;;;13.65;2.20;;;6.00;99.90;;;;;;5042909;28;20155;-68
2022/04/09 06:35:47;;;;;;;7.35;1.63;;;6.00;99.90;;;;;;5036009;28;20073;-69
2022/04/09 06:38:13;;;;;;;10.70;1.95;;;6.10;99.90;;;;;;5041931;28;20116;-68
2022/04/09 06:40:38;;;;;;;12.20;3.00;;;6.10;99.90;;;;;;5046832;28;20163;-67
2022/04/09 06:43:04;;;;;;;8.98;2.08;;;6.20;99.90;;;;;;5047355;28;20486;-68
2022/04/09 06:45:29;;;;;;;7.20;1.65;;;6.20;99.90;;;;;;5043450;28;20133;-67
2022/04/09 06:47:55;;;;;;;7.95;1.40;;;6.20;99.90;;;;;;5047585;28;20040;-68
2022/04/09 06:50:20;;;;;;;7.60;1.50;;;6.30;99.90;;;;;;5048994;28;20469;-68
2022/04/09 06:52:46;;;;;;;6.05;1.33;;;6.30;99.90;;;;;;5046720;28;20444;-68
2022/04/09 06:55:12;;;;;;;8.05;1.42;;;6.40;99.90;;;;;;5047910;28;20483;-68
2022/04/09 06:57:39;;;;;;;10.45;1.42;;;6.40;99.90;;;;;;5046773;28;20044;-67
2022/04/09 07:00:11;;;;;;;7.05;1.67;;;6.50;99.90;;;;;;5039570;28;20124;-67
2022/04/09 07:02:37;;;;;;;7.38;1.45;;;6.60;99.90;;;;;;5033672;28;20128;-68
2022/04/09 07:05:03;;;;;;;5.70;1.45;;;6.70;99.90;;;;;;5040552;28;20175;-68
2022/04/09 07:07:28;;;;;;;9.90;1.88;;;6.90;99.90;;;;;;5039202;28;20049;-68
2022/04/09 07:10:08;;;;;;;6.68;1.40;;;7.00;99.90;;;;;;5030810;28;20442;-68
2022/04/09 07:47:34;;;;;;;7.78;2.10;;;6.70;99.90;;;;;;5094134;27;21100;-65
2022/04/09 07:50:02;;;;;;;8.57;1.50;;;7.20;99.90;;;;;;5080532;28;20059;-68
2022/04/09 07:52:28;;;;;;;9.90;1.42;;;7.30;99.90;;;;;;5084481;28;20082;-68
2022/04/09 07:54:57;;;;;;;10.32;1.63;;;7.40;99.90;;;;;;5080717;28;21464;-68
2022/04/09 07:57:26;;;;;;;7.50;1.50;;;7.70;99.90;;;;;;5081725;28;20118;-67
2022/04/09 07:59:55;;;;;;;8.73;1.73;;;7.80;99.90;;;;;;5084482;28;20029;-67
2022/04/09 08:02:24;;;;;;;9.90;2.00;;;7.60;99.90;;;;;;5082218;28;20050;-67
2022/04/09 08:04:49;;;;;;;9.55;1.92;;;7.60;99.90;;;;;;5079877;28;20147;-67
2022/04/09 08:07:16;;;;;;;9.32;2.08;;;7.60;99.90;;;;;;5083824;28;20176;-67
2022/04/09 08:09:43;;;;;;;11.88;1.85;;;7.80;99.90;;;;;;5084598;28;20529;-67
2022/04/09 08:12:11;;;;;;;10.95;2.10;;;7.80;99.90;;;;;;5081638;28;20455;-67
2022/04/09 08:14:37;;;;;;;8.85;1.77;;;7.80;99.90;;;;;;5084808;28;20051;-67
2022/04/09 08:17:03;;;;;;;9.52;2.00;;;7.80;99.90;;;;;;5085561;28;20048;-67
2022/04/09 08:19:29;;;;;;;9.25;1.88;;;7.80;99.90;;;;;;5078263;28;20071;-67
2022/04/09 08:21:56;;;;;;;6.82;1.50;;;8.00;99.90;;;;;;5085410;28;20117;-67
2022/04/09 08:24:21;;;;;;;4.80;1.42;;;8.20;99.90;;;;;;5081280;28;20125;-68
2022/04/09 08:26:47;;;;;;;7.55;1.75;;;8.30;99.90;;;;;;5083585;28;20448;-67
2022/04/09 08:29:18;;;;;;;10.45;1.95;;;8.40;99.90;;;;;;5078741;28;20151;-68
2022/04/09 08:31:47;;;;;;;11.85;2.05;;;8.40;99.90;;;;;;5083631;28;20103;-67
2022/04/09 08:34:13;;;;;;;8.50;1.83;;;8.50;99.90;;;;;;5079627;28;20075;-67
2022/04/09 08:36:39;;;;;;;9.43;2.15;;;8.50;99.90;;;;;;5084322;28;20041;-67
2022/04/09 08:39:04;;;;;;;4.50;1.27;;;8.60;99.90;;;;;;5077748;28;20036;-68
2022/04/09 08:41:30;;;;;;;8.32;1.58;;;8.70;99.90;;;;;;5076906;28;20131;-67
2022/04/09 08:43:56;;;;;;;11.48;1.60;;;8.50;99.90;;;;;;5082576;28;20042;-67
2022/04/09 08:46:25;;;;;;;6.20;1.20;;;8.30;99.90;;;;;;5080232;28;20048;-68
2022/04/09 08:48:52;;;;;;;7.88;1.73;;;8.10;99.90;;;;;;5068856;28;20036;-68
2022/04/09 08:51:17;;;;;;;7.78;1.90;;;7.80;99.90;;;;;;5069107;28;20045;-67
2022/04/09 08:53:44;;;;;;;5.38;1.70;;;7.50;99.90;;;;;;5057303;28;20048;-67
2022/04/09 08:56:11;;;;;;;7.95;1.75;;;7.30;99.90;;;;;;5055388;28;20052;-68
2022/04/09 08:58:37;;;;;;;9.93;1.88;;;7.20;99.90;;;;;;5066049;28;20082;-67
2022/04/09 09:01:03;;;;;;;7.22;1.80;;;7.10;99.90;;;;;;5071463;28;20041;-67
2022/04/09 09:03:28;;;;;;;9.68;2.53;;;7.10;99.90;;;;;;5066435;28;20067;-67
2022/04/09 09:05:54;;;;;;;7.57;2.92;;;7.20;99.90;;;;;;5067677;28;20953;-67
2022/04/09 09:08:39;;;;;;;9.85;2.42;;;7.30;99.90;;;;;;5062076;28;20048;-67
2022/04/09 09:11:05;;;;;;;6.28;2.00;;;7.50;99.90;;;;;;5055379;28;20401;-67
2022/04/09 09:13:47;;;;;;;10.60;2.47;;;7.70;99.90;;;;;;5065543;28;20060;-65
2022/04/09 09:16:48;;;;;;;9.55;2.03;;;7.90;99.90;;;;;;5050240;28;20391;-67
2022/04/09 09:19:13;;;;;;;10.25;2.33;;;8.20;99.90;;;;;;5050152;28;20053;-66
2022/04/09 09:21:51;;;;;;;8.77;2.05;;;8.40;99.90;;;;;;5067377;28;20049;-67
2022/04/09 09:24:17;;;;;;;11.88;2.90;;;8.70;99.90;;;;;;5066996;28;20056;-66
2022/04/09 09:26:44;;;;;;;11.75;4.35;;;8.90;99.90;;;;;;5066001;28;20044;-67
2022/04/09 09:29:12;;;;;;;13.90;3.53;;;9.00;99.90;;;;;;5063014;28;20049;-67
2022/04/09 09:31:47;;;;;;;10.02;1.80;;;9.20;99.90;;;;;;5066612;28;20044;-67
2022/04/09 09:53:34;;;;;;;9.35;1.90;;;8.00;99.90;;;;;;5122773;27;20406;-69
2022/04/09 09:56:01;;;;;;;6.93;2.05;;;8.90;99.90;;;;;;5119520;27;20040;-68
2022/04/09 09:58:28;;;;;;;9.65;1.70;;;9.00;99.90;;;;;;5120098;27;20051;-69
2022/04/09 10:00:56;;;;;;;8.15;1.77;;;9.00;99.90;;;;;;5126173;27;20181;-69
2022/04/09 10:03:22;;;;;;;7.32;1.50;;;9.00;99.90;;;;;;5123010;27;20035;-69
2022/04/09 10:05:50;;;;;;;7.60;1.30;;;8.90;99.90;;;;;;5106473;28;20142;-68
2022/04/09 10:08:16;;;;;;;4.57;1.20;;;8.80;99.90;;;;;;5124388;27;20047;-69
2022/04/09 10:10:46;;;;;;;5.75;1.25;;;9.00;99.90;;;;;;5123062;27;20044;-68
2022/04/09 10:13:15;;;;;;;5.65;1.42;;;9.10;99.90;;;;;;5118519;28;20043;-69
2022/04/09 10:15:46;;;;;;;9.77;1.70;;;9.30;99.90;;;;;;5113452;27;20047;-68
2022/04/09 10:18:12;;;;;;;7.50;1.30;;;9.40;99.90;;;;;;5113780;27;20046;-69
2022/04/09 10:20:39;;;;;;;5.57;1.20;;;9.20;99.90;;;;;;5122271;28;20056;-69
2022/04/09 10:23:09;;;;;;;6.32;1.25;;;9.00;99.90;;;;;;5118625;27;20043;-71
2022/04/09 10:25:39;;;;;;;7.20;1.45;;;8.70;99.90;;;;;;5113534;27;20040;-70
2022/04/09 10:28:06;;;;;;;7.93;1.60;;;8.40;99.90;;;;;;5118027;28;20036;-68
2022/04/09 10:30:41;;;;;;;7.25;1.80;;;8.10;99.90;;;;;;5119245;28;20101;-68
2022/04/09 10:33:23;;;;;;;6.32;1.83;;;8.10;99.90;;;;;;5112457;27;20040;-69
2022/04/09 10:35:50;;;;;;;5.95;1.58;;;8.00;99.90;;;;;;5119892;28;20738;-68
2022/04/09 10:38:20;;;;;;;7.57;1.42;;;8.00;99.90;;;;;;5115445;28;20188;-68
2022/04/09 10:40:48;;;;;;;7.45;1.40;;;8.20;99.90;;;;;;5117700;28;20074;-69
2022/04/09 10:43:26;;;;;;;7.47;1.50;;;8.30;99.90;;;;;;5114936;28;20052;-68
2022/04/09 10:46:00;;;;;;;8.65;1.55;;;8.40;99.90;;;;;;5118047;28;20088;-68
2022/04/09 10:48:33;;;;;;;8.02;1.63;;;8.70;99.90;;;;;;5116468;28;20043;-68
2022/04/09 10:51:01;;;;;;;7.15;1.70;;;8.90;99.90;;;;;;5102911;28;20040;-67
2022/04/09 10:53:31;;;;;;;6.50;1.33;;;8.90;99.90;;;;;;5089413;28;20056;-68
2022/04/09 10:56:11;;;;;;;7.10;1.30;;;8.90;99.90;;;;;;5083717;28;20430;-67
2022/04/09 10:59:12;;;;;;;5.85;1.20;;;9.00;99.90;;;;;;5089057;28;20044;-67
2022/04/09 11:01:50;;;;;;;8.88;1.40;;;9.00;99.90;;;;;;5085315;28;20036;-68
2022/04/09 11:07:23;;;;;;;9.18;1.55;;;8.90;99.90;;;;;;5086216;28;20044;-70
2022/04/09 11:10:04;;;;;;;9.27;1.70;;;8.70;99.90;;;;;;5086674;28;20474;-70
2022/04/09 11:12:38;;;;;;;7.20;1.63;;;8.60;99.90;;;;;;5082464;28;20645;-70
2022/04/09 11:15:07;;;;;;;6.55;1.42;;;8.50;99.90;;;;;;5084222;28;20054;-69
2022/04/09 11:17:36;;;;;;;4.32;1.35;;;8.50;99.90;;;;;;5069701;28;20366;-70
2022/04/09 11:20:04;;;;;;;6.93;1.20;;;8.30;99.90;;;;;;5083111;28;20373;-69
2022/04/09 11:22:41;;;;;;;8.77;1.25;;;8.10;99.90;;;;;;5087046;28;20036;-69
2022/04/09 11:25:09;;;;;;;6.07;1.33;;;8.10;99.90;;;;;;5084550;28;20043;-69
2022/04/09 11:27:35;;;;;;;5.55;1.23;;;8.10;99.90;;;;;;5087183;28;20044;-69
2022/04/09 11:30:01;;;;;;;5.45;1.17;;;8.00;99.90;;;;;;5083306;28;20038;-69
2022/04/09 11:32:28;;;;;;;9.10;1.73;;;7.90;99.90;;;;;;5083488;28;20466;-69
2022/04/09 11:35:00;;;;;;;5.78;1.23;;;8.20;99.90;;;;;;5085876;28;20067;-69
2022/04/09 11:37:29;;;;;;;3.65;0.88;;;8.40;99.90;;;;;;5086034;28;20075;-70
2022/04/09 11:39:56;;;;;;;2.53;0.57;;;8.20;99.90;;;;;;5083967;28;20517;-69
2022/04/09 11:42:22;;;;;;;3.80;0.70;;;7.90;99.90;;;;;;5080667;28;20058;-68
2022/04/09 11:44:47;;;;;;;3.35;0.95;;;7.90;99.90;;;;;;5084057;28;20476;-68
2022/04/09 11:47:24;;;;;;;3.38;0.82;;;8.00;99.90;;;;;;5066950;28;20064;-68
2022/04/09 11:49:52;;;;;;;5.60;0.90;;;8.00;99.90;;;;;;5084114;28;20047;-69
2022/04/09 11:52:26;;;;;;;6.50;1.00;;;7.40;99.90;;;;;;5083243;28;20052;-69
2022/04/09 11:54:51;;;;;;;6.50;1.10;;;7.10;99.90;;;;;;5079022;28;20253;-70
2022/04/09 11:57:17;;;;;;;4.32;1.23;;;7.00;99.90;;;;;;5076420;28;20147;-69
2022/04/09 11:59:51;;;;;;;6.63;1.13;;;6.80;99.90;;;;;;5080486;28;20421;-69
2022/04/09 12:02:24;;;;;;;8.77;1.40;;;6.50;99.90;;;;;;5083557;28;20091;-69
2022/04/09 12:04:50;;;;;;;8.73;1.75;;;6.40;99.90;;;;;;5082869;28;20074;-69
2022/04/09 12:07:17;;;;;;;5.30;1.50;;;6.50;99.90;;;;;;5082991;28;20119;-69
2022/04/09 12:09:43;;;;;;;6.60;1.17;;;6.60;99.90;;;;;;5079304;28;20067;-69
2022/04/09 12:12:09;;;;;;;6.03;1.10;;;6.70;99.90;;;;;;5083846;28;20067;-69
2022/04/09 12:14:35;;;;;;;8.55;1.85;;;6.80;99.90;;;;;;5087745;28;20115;-68
2022/04/09 12:17:15;;;;;;;5.70;1.10;;;6.90;99.90;;;;;;5083516;28;20162;-68
2022/04/09 12:19:43;;;;;;;5.10;1.13;;;7.20;99.90;;;;;;5084343;28;20044;-68
2022/04/09 12:22:19;;;;;;;6.22;1.45;;;7.50;99.90;;;;;;5086469;28;20088;-70
2022/04/09 12:24:55;;;;;;;6.47;1.30;;;7.70;99.90;;;;;;5068961;28;20051;-70
2022/04/09 12:27:41;;;;;;;7.38;1.45;;;7.60;99.90;;;;;;5083009;28;20070;-70
2022/04/09 12:30:07;;;;;;;4.78;1.13;;;7.40;99.90;;;;;;5081563;28;20046;-69
2022/04/09 12:32:33;;;;;;;5.05;0.80;;;7.10;99.90;;;;;;5081302;28;20048;-69
2022/04/09 12:35:12;;;;;;;4.97;1.05;;;6.80;99.90;;;;;;5081663;28;20113;-68
2022/04/09 12:37:45;;;;;;;4.07;0.90;;;6.70;99.90;;;;;;5084229;28;20032;-68
2022/04/09 12:40:26;;;;;;;4.43;1.13;;;6.80;99.90;;;;;;5084002;28;20036;-68
2022/04/09 12:42:51;;;;;;;3.88;0.90;;;6.80;99.90;;;;;;5083537;28;20043;-68
2022/04/09 12:45:23;;;;;;;5.65;1.10;;;6.80;99.90;;;;;;5085393;28;20724;-69
2022/04/09 12:47:56;;;;;;;9.13;1.67;;;7.00;99.90;;;;;;5082538;28;20036;-67
2022/04/09 12:50:27;;;;;;;7.93;1.95;;;7.10;99.90;;;;;;5087938;28;20052;-69
2022/04/09 12:52:54;;;;;;;7.07;2.38;;;7.20;99.90;;;;;;5088147;28;20064;-68
2022/04/09 12:55:22;;;;;;;7.60;1.63;;;7.40;99.90;;;;;;5088025;28;20067;-68
2022/04/09 12:57:48;;;;;;;7.22;1.60;;;7.60;99.90;;;;;;5086837;28;20055;-68
2022/04/09 13:00:14;;;;;;;10.55;1.52;;;7.80;99.90;;;;;;5086053;28;20044;-68
2022/04/09 13:02:48;;;;;;;8.30;1.75;;;8.00;99.90;;;;;;5085512;28;20233;-67
2022/04/09 13:05:15;;;;;;;6.80;1.65;;;8.00;99.90;;;;;;5086414;28;20415;-67
2022/04/09 13:07:41;;;;;;;4.90;1.10;;;8.10;99.90;;;;;;5086859;28;20252;-68
2022/04/09 13:10:08;;;;;;;5.00;1.25;;;8.30;99.90;;;;;;5079451;28;20475;-68
2022/04/09 13:12:34;;;;;;;8.15;1.42;;;8.50;99.90;;;;;;5084131;28;20072;-68
2022/04/09 13:15:00;;;;;;;5.60;1.20;;;8.70;99.90;;;;;;5082676;28;20080;-68
2022/04/09 13:17:25;;;;;;;6.93;1.50;;;8.80;99.90;;;;;;5086228;28;20054;-67
2022/04/09 13:19:51;;;;;;;6.63;1.27;;;8.60;99.90;;;;;;5082740;28;20051;-68
2022/04/09 13:22:16;;;;;;;5.05;1.50;;;8.40;99.90;;;;;;5073927;28;20257;-68
2022/04/09 13:24:43;;;;;;;6.88;1.45;;;8.40;99.90;;;;;;5066557;28;20519;-69
2022/04/09 13:27:08;;;;;;;9.48;1.70;;;8.40;99.90;;;;;;5085965;28;20050;-69
2022/04/09 13:29:34;;;;;;;6.25;1.20;;;8.20;99.90;;;;;;5086808;28;20044;-68
2022/04/09 13:32:00;;;;;;;6.72;1.20;;;8.10;99.90;;;;;;5084823;28;20412;-68
2022/04/09 13:34:26;;;;;;;8.02;1.67;;;7.90;99.90;;;;;;5085671;28;20127;-69
2022/04/09 13:36:51;;;;;;;7.35;1.55;;;8.00;99.90;;;;;;5086182;28;20122;-68
2022/04/09 13:39:17;;;;;;;5.07;1.63;;;8.00;99.90;;;;;;5081457;28;20059;-69
2022/04/09 13:41:44;;;;;;;6.97;1.35;;;8.20;99.90;;;;;;5086372;28;20055;-67
2022/04/09 13:44:09;;;;;;;5.97;1.85;;;8.20;99.90;;;;;;5083641;28;20047;-68
2022/04/09 13:46:35;;;;;;;7.60;1.33;;;8.40;99.90;;;;;;5083841;28;20036;-67
2022/04/09 13:49:01;;;;;;;5.72;1.48;;;8.40;99.90;;;;;;5079380;28;20036;-68
2022/04/09 13:51:27;;;;;;;5.78;1.17;;;8.20;99.90;;;;;;5082977;28;20055;-68
2022/04/09 13:53:52;;;;;;;3.38;0.77;;;7.90;99.90;;;;;;5075925;28;20060;-68
2022/04/09 13:56:18;;;;;;;4.32;1.05;;;7.80;99.90;;;;;;5076466;28;20421;-68